Time;durP1;ratioP1;P1;durP2;ratioP2;P2;SDS_P1;SDS_P2;PMS_P1;PMS_P2;Temp;Humidity;BMP_temperature;BMP_pressure;BME280_temperature;BME280_humidity;BME280_pressure;Samples;Min_cycle;Max_cycle;Signal;HPM_P1;HPM_P2
2022/04/21 00:02:14;;;;;;;13.13;8.02;;;22.80;42.00;;;;;;6157638;28;80336;-64
2022/04/21 00:05:14;;;;;;;12.45;7.43;;;22.80;42.20;;;;;;6156991;28;80675;-64
2022/04/21 00:08:17;;;;;;;11.77;7.70;;;22.80;42.00;;;;;;6158406;28;80973;-63
2022/04/21 00:11:17;;;;;;;14.10;7.97;;;22.80;42.00;;;;;;6144778;28;80942;-64
2022/04/21 00:14:18;;;;;;;14.15;8.70;;;22.80;41.90;;;;;;6134398;28;80293;-64
2022/04/21 00:17:18;;;;;;;14.70;8.70;;;22.80;41.80;;;;;;6133218;28;80560;-64
2022/04/21 00:20:19;;;;;;;16.25;8.13;;;22.80;41.70;;;;;;6134287;28;82352;-63
2022/04/21 00:23:29;;;;;;;12.88;7.68;;;22.80;41.60;;;;;;6134337;28;80315;-64
2022/04/21 00:26:29;;;;;;;12.52;7.25;;;22.80;41.80;;;;;;6145965;28;80809;-64
2022/04/21 00:29:30;;;;;;;14.48;7.80;;;22.80;42.00;;;;;;6156423;28;83372;-64
2022/04/21 00:32:30;;;;;;;15.20;8.15;;;22.80;41.80;;;;;;6157589;28;80237;-64
2022/04/21 00:35:31;;;;;;;11.27;7.43;;;22.80;41.70;;;;;;6154858;28;80704;-64
2022/04/21 00:38:31;;;;;;;13.57;7.75;;;22.80;42.00;;;;;;6134266;28;81254;-64
2022/04/21 00:41:32;;;;;;;13.20;8.20;;;22.80;41.50;;;;;;6153738;28;80606;-64
2022/04/21 00:44:34;;;;;;;12.15;7.65;;;22.80;41.60;;;;;;6156357;28;81463;-64
2022/04/21 00:47:35;;;;;;;13.35;7.05;;;22.80;41.70;;;;;;6139397;28;81419;-63
2022/04/21 00:50:37;;;;;;;16.45;7.70;;;22.80;41.80;;;;;;6133192;28;80942;-63
2022/04/21 00:53:37;;;;;;;12.90;7.22;;;22.80;41.90;;;;;;6133274;28;80931;-62
2022/04/21 00:56:38;;;;;;;12.57;7.78;;;22.80;41.70;;;;;;6155893;28;81434;-63
2022/04/21 00:59:38;;;;;;;11.52;6.70;;;22.80;41.80;;;;;;6142465;28;80529;-62
2022/04/21 01:02:52;;;;;;;13.10;7.97;;;22.80;41.70;;;;;;6132231;28;80074;-63
2022/04/21 01:05:52;;;;;;;12.20;7.40;;;22.80;41.70;;;;;;6133147;28;80657;-62
2022/04/21 01:08:53;;;;;;;13.50;7.25;;;22.80;41.70;;;;;;6135456;28;80407;-63
2022/04/21 01:11:53;;;;;;;12.35;7.05;;;22.80;41.80;;;;;;6145557;28;80615;-63
2022/04/21 01:14:54;;;;;;;12.88;7.85;;;22.80;41.80;;;;;;6161441;28;80441;-63
2022/04/21 01:17:54;;;;;;;11.85;7.15;;;22.80;41.70;;;;;;6145805;28;80329;-63
2022/04/21 01:20:55;;;;;;;15.77;7.78;;;22.70;41.50;;;;;;6137196;28;80502;-63
2022/04/21 01:23:56;;;;;;;12.23;7.38;;;22.70;41.50;;;;;;6160278;28;80243;-63
2022/04/21 01:26:57;;;;;;;11.57;7.20;;;22.70;41.40;;;;;;6159420;28;84116;-63
2022/04/21 01:29:58;;;;;;;11.35;6.85;;;22.70;41.40;;;;;;6161397;28;80582;-63
2022/04/21 01:32:59;;;;;;;16.60;8.18;;;22.70;41.50;;;;;;6161125;28;80279;-63
2022/04/21 01:35:59;;;;;;;11.40;6.90;;;22.70;41.40;;;;;;6159568;28;81872;-63
2022/04/21 01:42:19;;;;;;;12.55;7.55;;;22.70;41.50;;;;;;6155745;28;80394;-63
2022/04/21 01:45:20;;;;;;;11.65;7.03;;;22.70;41.50;;;;;;6161051;28;80559;-63
2022/04/21 01:48:20;;;;;;;11.50;6.85;;;22.70;41.50;;;;;;6144943;28;83466;-63
2022/04/21 01:51:21;;;;;;;13.35;7.32;;;22.70;41.40;;;;;;6146173;28;80974;-63
2022/04/21 01:54:21;;;;;;;11.93;7.35;;;22.70;41.00;;;;;;6160603;28;80477;-64
2022/04/21 01:57:22;;;;;;;12.55;6.72;;;22.70;41.10;;;;;;6156166;28;80575;-63
2022/04/21 02:00:23;;;;;;;12.35;7.10;;;22.70;41.00;;;;;;6150171;28;82987;-64
2022/04/21 02:03:23;;;;;;;13.73;7.93;;;22.70;41.20;;;;;;6146871;28;83000;-63
2022/04/21 02:06:24;;;;;;;11.25;6.65;;;22.70;40.90;;;;;;6160902;28;80794;-63
2022/04/21 02:09:24;;;;;;;10.65;6.28;;;22.70;40.90;;;;;;6141042;28;80475;-63
2022/04/21 02:12:27;;;;;;;11.05;6.72;;;22.70;41.20;;;;;;6135098;28;80905;-63
2022/04/21 02:15:28;;;;;;;11.45;7.15;;;22.70;40.90;;;;;;6136246;28;80641;-63
2022/04/21 02:18:28;;;;;;;14.40;8.13;;;22.70;40.90;;;;;;6136567;28;80488;-64
2022/04/21 02:21:29;;;;;;;13.82;7.63;;;22.70;40.70;;;;;;6136147;28;80577;-65
2022/04/21 02:24:29;;;;;;;12.32;7.72;;;22.70;40.90;;;;;;6153634;28;80227;-65
2022/04/21 02:27:30;;;;;;;12.57;7.28;;;22.70;40.70;;;;;;6160040;28;80965;-66
2022/04/21 02:30:31;;;;;;;13.45;7.35;;;22.70;40.90;;;;;;6160448;28;80568;-66
2022/04/21 02:33:32;;;;;;;13.88;7.43;;;22.70;40.80;;;;;;6160379;28;80925;-66
2022/04/21 02:36:33;;;;;;;12.13;7.57;;;22.70;40.60;;;;;;6160801;28;80488;-63
2022/04/21 02:39:33;;;;;;;14.68;8.05;;;22.70;40.10;;;;;;6160161;28;81551;-65
2022/04/21 02:42:34;;;;;;;12.13;7.13;;;22.70;40.40;;;;;;6160461;28;79994;-65
2022/04/21 02:45:34;;;;;;;12.68;7.75;;;22.70;40.50;;;;;;6136730;28;81502;-65
2022/04/21 02:48:35;;;;;;;16.35;8.25;;;22.70;40.70;;;;;;6148245;28;80540;-65
2022/04/21 02:51:35;;;;;;;15.70;7.47;;;22.70;40.70;;;;;;6135536;28;81576;-65
2022/04/21 02:57:55;;;;;;;11.80;7.55;;;22.70;40.70;;;;;;6140280;28;80516;-65
2022/04/21 03:00:55;;;;;;;13.25;7.78;;;22.70;40.90;;;;;;6134074;28;82532;-65
2022/04/21 03:03:56;;;;;;;12.95;7.63;;;22.70;40.80;;;;;;6135438;28;80582;-65
2022/04/21 03:06:56;;;;;;;12.40;7.82;;;22.70;40.80;;;;;;6135561;28;80751;-64
2022/04/21 03:09:57;;;;;;;12.70;8.00;;;22.70;40.80;;;;;;6136783;28;80185;-63
2022/04/21 03:12:58;;;;;;;15.00;7.57;;;22.70;40.80;;;;;;6135690;28;80494;-63
2022/04/21 03:15:59;;;;;;;11.40;7.30;;;22.70;40.60;;;;;;6135278;28;80530;-63
2022/04/21 03:18:59;;;;;;;10.50;6.60;;;22.70;40.40;;;;;;6135514;28;80962;-63
2022/04/21 03:25:20;;;;;;;15.50;8.07;;;22.70;40.50;;;;;;6136420;28;80452;-64
2022/04/21 03:28:21;;;;;;;11.80;6.93;;;22.70;40.50;;;;;;6159003;28;80324;-63
2022/04/21 03:31:23;;;;;;;13.77;8.27;;;22.60;40.40;;;;;;6136061;28;80659;-63
2022/04/21 03:34:23;;;;;;;14.57;7.97;;;22.70;40.30;;;;;;6138804;28;86426;-64
2022/04/21 03:37:24;;;;;;;11.63;7.32;;;22.60;40.00;;;;;;6134514;28;82160;-64
2022/04/21 03:40:24;;;;;;;12.70;7.45;;;22.60;40.20;;;;;;6159341;28;80468;-64
2022/04/21 03:43:25;;;;;;;12.00;6.85;;;22.60;40.10;;;;;;6175370;28;81101;-63
2022/04/21 03:46:25;;;;;;;14.38;8.02;;;22.70;40.20;;;;;;6158039;28;81676;-63
2022/04/21 03:49:26;;;;;;;10.68;6.63;;;22.70;39.90;;;;;;6154519;28;81238;-63
2022/04/21 03:52:26;;;;;;;13.20;7.47;;;22.70;40.00;;;;;;6158214;28;81729;-63
2022/04/21 03:55:27;;;;;;;15.32;7.03;;;22.70;39.90;;;;;;6148036;28;80995;-62
2022/04/21 03:58:27;;;;;;;12.57;7.13;;;22.70;39.90;;;;;;6142421;28;80593;-63
2022/04/21 04:01:28;;;;;;;13.93;7.13;;;22.70;39.80;;;;;;6138215;28;80569;-64
2022/04/21 04:04:29;;;;;;;12.70;7.18;;;22.70;39.90;;;;;;6137148;28;80692;-64
2022/04/21 04:10:52;;;;;;;12.30;6.72;;;22.80;39.70;;;;;;6154455;28;81546;-63
2022/04/21 04:13:52;;;;;;;12.10;6.97;;;22.80;39.80;;;;;;6149800;28;81323;-63
2022/04/21 04:16:53;;;;;;;12.52;8.20;;;22.80;39.90;;;;;;6143802;28;81002;-62
2022/04/21 04:19:54;;;;;;;13.82;6.45;;;22.80;40.00;;;;;;6150465;28;83023;-63
2022/04/21 04:22:54;;;;;;;10.13;6.75;;;22.80;39.80;;;;;;6136652;28;81779;-63
2022/04/21 04:25:55;;;;;;;16.30;7.15;;;22.80;40.00;;;;;;6151329;28;80342;-63
2022/04/21 04:28:55;;;;;;;10.70;6.20;;;22.80;39.90;;;;;;6133826;28;80542;-63
2022/04/21 04:31:57;;;;;;;10.63;6.22;;;22.80;40.00;;;;;;6150752;28;80177;-63
2022/04/21 04:34:57;;;;;;;12.43;6.70;;;22.80;40.00;;;;;;6152142;28;80491;-66
2022/04/21 04:37:58;;;;;;;13.93;7.10;;;22.80;40.10;;;;;;6134328;28;80498;-65
2022/04/21 04:42:16;;;;;;;11.90;7.03;;;22.80;40.50;;;;;;6151791;28;80343;-66
2022/04/21 04:44:19;;;;;;;12.50;6.80;;;22.80;40.40;;;;;;6159227;28;83795;-67
2022/04/21 04:47:19;;;;;;;12.82;7.63;;;22.80;40.80;;;;;;6144676;28;80247;-65
2022/04/21 04:50:20;;;;;;;13.25;7.22;;;22.80;40.70;;;;;;6136448;28;81636;-66
2022/04/21 04:53:20;;;;;;;13.88;7.55;;;22.80;40.60;;;;;;6137991;28;80347;-66
2022/04/21 04:56:21;;;;;;;15.35;7.45;;;22.90;40.30;;;;;;6135896;28;81805;-72
2022/04/21 04:59:21;;;;;;;12.63;7.72;;;22.80;40.30;;;;;;6127108;28;80734;-68
2022/04/21 05:02:22;;;;;;;15.02;6.88;;;22.80;40.20;;;;;;6153720;28;81747;-71
2022/04/21 05:05:23;;;;;;;11.60;7.22;;;22.80;40.10;;;;;;6161876;28;81256;-65
2022/04/21 05:08:23;;;;;;;24.02;7.95;;;22.80;40.10;;;;;;6138811;28;80509;-65
2022/04/21 05:11:24;;;;;;;12.68;6.82;;;22.80;40.30;;;;;;6137541;28;80619;-65
2022/04/21 05:14:24;;;;;;;15.43;6.97;;;22.80;40.20;;;;;;6137751;28;81837;-64
2022/04/21 05:17:25;;;;;;;20.60;7.03;;;22.80;40.30;;;;;;6147511;28;81564;-66
2022/04/21 05:20:25;;;;;;;14.77;7.40;;;22.80;40.30;;;;;;6146586;28;80184;-66
2022/04/21 05:23:26;;;;;;;12.63;6.85;;;22.90;40.20;;;;;;6142432;28;81130;-65
2022/04/21 05:26:26;;;;;;;11.70;7.20;;;22.90;40.20;;;;;;6159343;28;81908;-65
2022/04/21 05:32:47;;;;;;;11.38;7.47;;;22.90;40.80;;;;;;6160713;28;80393;-65
2022/04/21 05:35:47;;;;;;;16.00;8.90;;;22.90;40.50;;;;;;6155538;28;80982;-66
2022/04/21 05:38:49;;;;;;;11.55;7.38;;;22.90;40.50;;;;;;6154646;28;80598;-66
2022/04/21 05:41:50;;;;;;;17.45;8.18;;;22.90;40.50;;;;;;6157988;28;80432;-65
2022/04/21 05:44:50;;;;;;;14.57;8.15;;;22.90;40.60;;;;;;6161342;28;80755;-66
2022/04/21 05:47:51;;;;;;;17.80;7.75;;;22.90;40.40;;;;;;6156686;28;80326;-65
2022/04/21 05:50:53;;;;;;;12.82;7.72;;;23.00;40.60;;;;;;6136798;28;80588;-65
2022/04/21 05:53:53;;;;;;;16.17;7.78;;;23.00;40.70;;;;;;6155619;28;80751;-65
2022/04/21 05:56:54;;;;;;;13.60;7.45;;;23.00;40.60;;;;;;6149389;28;80481;-64
2022/04/21 05:59:54;;;;;;;13.32;7.72;;;23.00;40.40;;;;;;6148708;28;80493;-65
2022/04/21 06:02:55;;;;;;;15.70;7.90;;;23.00;40.30;;;;;;6152714;28;81402;-65
2022/04/21 06:05:55;;;;;;;12.98;7.32;;;23.00;40.30;;;;;;6160987;28;80192;-64
2022/04/21 06:08:56;;;;;;;11.77;7.70;;;23.00;40.30;;;;;;6150236;28;81170;-65
2022/04/21 06:11:58;;;;;;;14.30;7.95;;;23.00;40.20;;;;;;6136355;28;81877;-64
2022/04/21 06:14:58;;;;;;;17.77;8.10;;;22.90;40.20;;;;;;6160660;28;80743;-65
2022/04/21 06:17:59;;;;;;;13.90;7.65;;;23.00;40.30;;;;;;6160375;28;80424;-66
2022/04/21 06:21:00;;;;;;;13.35;7.35;;;23.00;40.30;;;;;;6160494;28;81555;-66
2022/04/21 06:24:01;;;;;;;13.35;7.72;;;22.90;39.90;;;;;;6158767;28;80300;-65
2022/04/21 06:27:03;;;;;;;14.82;8.55;;;22.90;40.30;;;;;;6160239;28;81411;-65
2022/04/21 06:30:04;;;;;;;18.75;9.18;;;23.00;40.60;;;;;;6157514;28;80497;-66
2022/04/21 06:33:05;;;;;;;15.35;8.38;;;22.90;40.40;;;;;;6151488;28;81747;-65
2022/04/21 06:36:07;;;;;;;14.77;7.80;;;23.00;40.50;;;;;;6155458;28;80440;-65
2022/04/21 06:39:08;;;;;;;15.27;7.82;;;23.00;40.40;;;;;;6157512;28;81327;-65
2022/04/21 06:42:08;;;;;;;18.15;7.55;;;23.00;40.50;;;;;;6158611;28;83153;-65
2022/04/21 06:48:28;;;;;;;16.98;8.13;;;23.10;40.60;;;;;;6157679;28;81070;-67
2022/04/21 06:51:29;;;;;;;14.50;7.75;;;23.10;40.50;;;;;;6166279;28;80302;-65
2022/04/21 06:54:29;;;;;;;15.23;7.95;;;23.20;40.80;;;;;;6153685;28;82172;-64
2022/04/21 06:57:30;;;;;;;12.75;7.18;;;23.20;40.90;;;;;;6147272;28;80428;-66
2022/04/21 07:00:30;;;;;;;13.18;7.15;;;23.20;40.80;;;;;;6158916;28;81094;-65
2022/04/21 07:03:31;;;;;;;13.00;7.63;;;23.20;40.50;;;;;;6158257;28;81548;-66
2022/04/21 07:06:31;;;;;;;18.08;7.13;;;23.20;40.40;;;;;;6153430;28;81754;-67
2022/04/21 07:09:32;;;;;;;9.70;6.60;;;23.20;40.40;;;;;;6151138;28;80683;-67
2022/04/21 07:12:32;;;;;;;12.02;6.28;;;23.20;40.40;;;;;;6160060;28;80348;-66
2022/04/21 07:15:33;;;;;;;23.58;8.05;;;23.20;40.50;;;;;;6153455;28;80910;-66
2022/04/21 07:18:33;;;;;;;20.42;8.65;;;23.20;40.60;;;;;;6148781;28;81404;-66
2022/04/21 07:21:34;;;;;;;20.30;8.13;;;23.20;40.70;;;;;;6156894;28;80495;-66
2022/04/21 07:24:34;;;;;;;13.10;7.40;;;23.20;40.70;;;;;;6158860;28;80258;-65
2022/04/21 07:27:36;;;;;;;19.60;8.23;;;23.20;40.70;;;;;;6135824;28;80635;-66
2022/04/21 07:30:37;;;;;;;18.48;7.93;;;23.20;41.10;;;;;;6157530;28;81577;-67
2022/04/21 07:33:38;;;;;;;17.45;7.88;;;23.20;40.80;;;;;;6149616;28;80579;-66
2022/04/21 07:36:38;;;;;;;14.57;7.35;;;23.20;40.70;;;;;;6143183;28;80425;-66
2022/04/21 07:39:42;;;;;;;20.98;7.13;;;23.30;40.50;;;;;;6135019;28;81060;-65
2022/04/21 07:42:44;;;;;;;18.10;6.40;;;23.20;40.50;;;;;;6136057;28;81302;-67
2022/04/21 07:45:45;;;;;;;12.93;6.60;;;23.20;40.40;;;;;;6150678;28;80838;-70
2022/04/21 07:55:24;;;;;;;15.65;6.93;;;23.20;40.60;;;;;;6134426;28;85890;-65
2022/04/21 07:58:27;;;;;;;89.78;41.17;;;23.20;40.50;;;;;;6142139;28;81043;-65
2022/04/21 08:01:27;;;;;;;253.10;117.63;;;23.20;40.60;;;;;;6144744;28;83353;-65
2022/04/21 08:04:29;;;;;;;177.63;79.35;;;23.20;40.90;;;;;;6130921;28;86123;-65
2022/04/21 08:07:30;;;;;;;156.18;74.88;;;23.30;40.70;;;;;;6136124;28;87047;-66
2022/04/21 08:10:31;;;;;;;133.93;63.40;;;23.30;40.80;;;;;;6139583;28;83379;-67
2022/04/21 08:13:31;;;;;;;126.00;61.40;;;23.30;41.10;;;;;;6144839;28;83400;-65
2022/04/21 08:16:32;;;;;;;118.65;55.45;;;23.40;41.20;;;;;;6131284;28;83409;-67
2022/04/21 08:19:33;;;;;;;110.53;51.22;;;23.40;41.20;;;;;;6133672;28;86061;-66
2022/04/21 08:22:33;;;;;;;102.18;47.47;;;23.40;41.20;;;;;;6135753;28;84087;-69
2022/04/21 08:32:43;;;;;;;74.72;35.53;;;23.50;41.90;;;;;;6121053;28;83325;-67
2022/04/21 08:35:44;;;;;;;78.22;34.42;;;23.60;41.10;;;;;;6142315;28;83014;-74
2022/04/21 08:38:44;;;;;;;67.15;32.15;;;23.60;41.20;;;;;;6135310;28;84550;-72
2022/04/21 08:41:45;;;;;;;57.30;29.77;;;23.60;40.90;;;;;;6156178;28;83049;-68
2022/04/21 08:44:45;;;;;;;59.75;28.50;;;23.50;40.60;;;;;;6163748;28;83806;-66
2022/04/21 08:47:46;;;;;;;79.65;38.00;;;23.50;40.70;;;;;;6152031;28;83499;-66
2022/04/21 08:50:46;;;;;;;175.15;84.18;;;23.50;41.10;;;;;;6152970;28;83570;-66
2022/04/21 08:53:47;;;;;;;284.92;133.95;;;23.50;41.30;;;;;;6134831;28;84439;-66
2022/04/21 08:56:49;;;;;;;217.45;107.22;;;23.60;41.60;;;;;;6143523;28;85437;-65
2022/04/21 08:59:49;;;;;;;187.68;89.47;;;23.60;41.50;;;;;;6155499;28;85542;-67
2022/04/21 09:02:50;;;;;;;170.40;80.75;;;23.60;41.60;;;;;;6157887;28;85226;-67
2022/04/21 09:05:51;;;;;;;147.52;67.25;;;23.70;41.60;;;;;;6153374;28;84235;-66
2022/04/21 09:08:52;;;;;;;122.15;60.13;;;23.70;41.70;;;;;;6144271;28;83409;-66
2022/04/21 09:11:52;;;;;;;115.18;56.95;;;23.80;41.70;;;;;;6158847;28;83152;-67
2022/04/21 09:14:53;;;;;;;115.88;53.67;;;23.90;41.50;;;;;;6160754;28;83453;-69
2022/04/21 09:17:53;;;;;;;101.70;49.60;;;23.90;41.20;;;;;;6161270;28;83448;-67
2022/04/21 09:20:54;;;;;;;99.07;47.22;;;23.90;41.20;;;;;;6158191;28;83193;-71
2022/04/21 09:23:54;;;;;;;91.53;45.90;;;23.90;41.20;;;;;;6158456;28;83467;-70
2022/04/21 09:26:55;;;;;;;84.20;40.42;;;23.90;41.30;;;;;;6149074;28;83383;-66
2022/04/21 09:29:56;;;;;;;79.97;37.25;;;23.90;41.20;;;;;;6142354;28;85292;-65
2022/04/21 09:32:57;;;;;;;63.97;32.20;;;23.90;41.10;;;;;;6157003;28;90487;-67
2022/04/21 09:35:57;;;;;;;64.13;29.88;;;23.90;40.80;;;;;;6156885;28;83449;-66
2022/04/21 09:38:58;;;;;;;58.90;27.77;;;23.90;40.60;;;;;;6134367;28;82827;-67
2022/04/21 09:41:59;;;;;;;50.50;25.98;;;23.90;40.60;;;;;;6140194;28;83897;-67
2022/04/21 09:48:19;;;;;;;47.10;24.90;;;23.90;40.70;;;;;;6150800;28;83431;-67
2022/04/21 09:51:21;;;;;;;46.97;24.23;;;23.80;40.50;;;;;;6157681;28;83363;-68
2022/04/21 09:54:21;;;;;;;42.20;20.75;;;23.80;40.20;;;;;;6138431;28;83476;-65
2022/04/21 09:57:22;;;;;;;51.97;19.20;;;23.80;40.10;;;;;;6136371;28;90377;-67
2022/04/21 10:00:22;;;;;;;38.47;18.20;;;23.80;40.60;;;;;;6133937;28;83717;-65
2022/04/21 10:03:23;;;;;;;32.45;17.20;;;23.90;39.70;;;;;;6146942;28;86293;-68
2022/04/21 10:06:24;;;;;;;26.25;14.35;;;23.90;39.50;;;;;;6157136;28;83219;-66
2022/04/21 10:09:24;;;;;;;22.83;13.32;;;23.90;38.50;;;;;;6134442;28;83158;-65
2022/04/21 10:12:25;;;;;;;25.70;12.88;;;23.90;37.70;;;;;;6137302;28;84420;-66
2022/04/21 10:15:25;;;;;;;23.83;12.07;;;23.90;37.20;;;;;;6157625;28;83068;-67
2022/04/21 10:18:26;;;;;;;21.67;11.30;;;23.90;37.20;;;;;;6152916;28;83054;-67
2022/04/21 10:21:26;;;;;;;22.60;10.60;;;24.00;37.00;;;;;;6157323;28;82998;-67
2022/04/21 10:24:27;;;;;;;19.17;10.45;;;24.00;37.20;;;;;;6157339;28;83603;-67
2022/04/21 10:27:28;;;;;;;14.38;8.38;;;23.90;37.30;;;;;;6150698;28;83960;-68
2022/04/21 10:30:29;;;;;;;17.40;9.07;;;24.00;36.60;;;;;;6140873;28;83029;-67
2022/04/21 10:33:29;;;;;;;15.80;8.07;;;24.00;36.60;;;;;;6159855;28;81047;-67
2022/04/21 10:36:30;;;;;;;14.02;7.47;;;23.90;36.50;;;;;;6159113;28;80641;-68
2022/04/21 10:39:31;;;;;;;11.55;7.18;;;23.90;36.30;;;;;;6142443;28;80939;-67
2022/04/21 10:42:31;;;;;;;17.35;7.50;;;23.90;36.20;;;;;;6135451;28;80457;-67
2022/04/21 10:45:32;;;;;;;13.82;7.30;;;23.90;36.20;;;;;;6151875;28;86112;-68
2022/04/21 10:48:32;;;;;;;11.40;7.00;;;23.90;35.90;;;;;;6154349;28;81628;-66
2022/04/21 10:51:33;;;;;;;8.93;5.97;;;23.90;35.80;;;;;;6160270;28;80492;-66
2022/04/21 10:57:55;;;;;;;10.77;6.28;;;23.90;35.40;;;;;;6159135;28;80357;-65
2022/04/21 11:00:56;;;;;;;9.52;6.13;;;23.90;35.50;;;;;;6158426;28;80457;-64
2022/04/21 11:03:56;;;;;;;10.05;5.90;;;23.80;35.50;;;;;;6156350;28;81896;-66
2022/04/21 11:06:57;;;;;;;13.30;6.00;;;23.90;35.60;;;;;;6144207;28;83274;-66
2022/04/21 11:09:57;;;;;;;6.95;5.40;;;23.80;35.30;;;;;;6153595;28;81436;-69
2022/04/21 11:12:58;;;;;;;8.93;5.80;;;23.90;35.20;;;;;;6158466;28;83349;-67
2022/04/21 11:15:58;;;;;;;12.48;6.53;;;23.80;34.60;;;;;;6136328;28;81644;-64
2022/04/21 11:18:59;;;;;;;15.23;7.20;;;23.70;34.60;;;;;;6143371;28;80244;-67
2022/04/21 11:21:59;;;;;;;18.83;7.07;;;23.70;34.90;;;;;;6158242;28;82142;-67
2022/04/21 11:25:01;;;;;;;16.60;6.53;;;23.70;34.90;;;;;;6160222;28;80805;-67
2022/04/21 11:28:02;;;;;;;12.38;6.93;;;23.70;35.10;;;;;;6142657;28;80688;-68
2022/04/21 11:31:02;;;;;;;13.15;5.75;;;23.70;35.40;;;;;;6138006;28;81033;-67
2022/04/21 11:34:03;;;;;;;17.67;6.55;;;23.60;35.60;;;;;;6142105;28;80798;-65
2022/04/21 11:37:06;;;;;;;16.75;6.25;;;23.70;36.00;;;;;;6156397;28;80999;-68
2022/04/21 11:40:07;;;;;;;8.40;6.20;;;23.70;35.90;;;;;;6151634;28;80835;-68
2022/04/21 11:43:07;;;;;;;15.35;6.15;;;23.70;36.00;;;;;;6161703;28;81499;-66
2022/04/21 11:46:11;;;;;;;14.07;6.30;;;23.70;36.20;;;;;;6155287;28;81421;-67
2022/04/21 11:49:11;;;;;;;15.95;6.57;;;23.70;36.90;;;;;;6149148;28;81582;-67
2022/04/21 11:52:12;;;;;;;14.80;7.55;;;23.70;38.90;;;;;;6158297;28;81482;-66
2022/04/21 11:55:14;;;;;;;21.20;7.20;;;23.70;39.50;;;;;;6159500;28;82246;-65
2022/04/21 11:58:14;;;;;;;19.27;7.72;;;23.70;40.30;;;;;;6150227;28;80405;-65
2022/04/21 12:07:53;;;;;;;15.90;7.53;;;23.80;40.10;;;;;;6152609;28;81471;-66
2022/04/21 12:10:54;;;;;;;14.70;6.97;;;23.80;39.70;;;;;;6137709;28;81144;-66
2022/04/21 12:13:54;;;;;;;20.13;8.55;;;23.80;39.30;;;;;;6135571;28;83294;-66
2022/04/21 12:16:55;;;;;;;15.98;6.63;;;23.80;39.10;;;;;;6137114;28;80714;-68
2022/04/21 12:19:56;;;;;;;15.25;6.88;;;23.80;38.90;;;;;;6139940;28;80532;-67
2022/04/21 12:22:56;;;;;;;20.42;6.57;;;23.80;39.20;;;;;;6159460;28;80173;-66
2022/04/21 12:25:58;;;;;;;13.05;6.57;;;23.80;39.00;;;;;;6158278;28;80448;-66
2022/04/21 12:28:58;;;;;;;14.95;6.35;;;23.70;38.80;;;;;;6134428;28;81165;-66
2022/04/21 12:31:59;;;;;;;49.45;22.98;;;23.70;38.80;;;;;;6148315;28;81053;-65
2022/04/21 12:34:59;;;;;;;77.93;38.25;;;23.70;38.50;;;;;;6144338;28;83442;-65
2022/04/21 12:41:19;;;;;;;192.23;94.85;;;23.70;38.40;;;;;;6140467;28;84733;-65
2022/04/21 12:44:22;;;;;;;217.48;108.35;;;23.70;38.10;;;;;;6143508;28;82819;-67
2022/04/21 12:47:23;;;;;;;179.82;89.30;;;23.70;37.90;;;;;;6143560;28;85733;-67
2022/04/21 12:50:23;;;;;;;106.07;49.33;;;23.70;37.70;;;;;;6151970;28;85813;-67
2022/04/21 12:53:24;;;;;;;129.50;65.15;;;23.70;36.80;;;;;;6148657;28;83341;-68
2022/04/21 12:56:25;;;;;;;91.88;43.03;;;23.70;36.80;;;;;;6148457;28;83475;-68
2022/04/21 12:59:25;;;;;;;72.22;34.78;;;23.60;36.50;;;;;;6148770;28;83047;-67
2022/04/21 13:02:26;;;;;;;58.03;28.05;;;23.60;36.40;;;;;;6148217;28;84285;-67
2022/04/21 13:05:27;;;;;;;52.60;26.15;;;23.60;36.30;;;;;;6145640;28;85863;-67
2022/04/21 13:08:27;;;;;;;39.45;20.88;;;23.60;36.30;;;;;;6141581;28;83495;-66
2022/04/21 13:11:28;;;;;;;40.13;18.00;;;23.60;36.00;;;;;;6145735;28;83895;-64
2022/04/21 13:14:28;;;;;;;27.75;15.82;;;23.60;36.10;;;;;;6149142;28;83405;-66
2022/04/21 13:17:29;;;;;;;27.35;13.77;;;23.60;35.70;;;;;;6150190;28;83088;-70
2022/04/21 13:23:50;;;;;;;22.25;13.13;;;23.50;35.70;;;;;;6152744;28;84109;-68
2022/04/21 13:26:50;;;;;;;20.25;11.55;;;23.50;35.90;;;;;;6153152;28;83166;-68
2022/04/21 13:29:51;;;;;;;20.15;10.55;;;23.50;36.00;;;;;;6148699;28;83563;-68
2022/04/21 13:36:10;;;;;;;17.42;8.90;;;23.50;36.00;;;;;;6152676;28;82981;-68
2022/04/21 13:39:11;;;;;;;17.13;9.90;;;23.50;36.00;;;;;;6148035;28;81406;-68
2022/04/21 13:42:12;;;;;;;14.43;8.85;;;23.50;36.00;;;;;;6150125;28;82469;-67
2022/04/21 13:45:13;;;;;;;15.60;9.88;;;23.40;35.40;;;;;;6146335;28;81589;-65
2022/04/21 13:48:14;;;;;;;15.63;9.75;;;23.40;35.50;;;;;;6155501;28;81301;-66
2022/04/21 13:51:15;;;;;;;16.10;9.23;;;23.30;35.70;;;;;;6159603;28;81354;-65
2022/04/21 13:54:15;;;;;;;17.48;8.15;;;23.30;36.00;;;;;;6149202;28;81461;-67
2022/04/21 13:57:16;;;;;;;18.42;9.18;;;23.30;36.10;;;;;;6149146;28;80857;-66
2022/04/21 14:00:16;;;;;;;15.80;8.52;;;23.20;36.30;;;;;;6150194;28;80449;-64
2022/04/21 14:03:17;;;;;;;18.00;8.70;;;23.20;36.50;;;;;;6137116;28;80628;-64
2022/04/21 14:06:17;;;;;;;18.05;8.60;;;23.20;36.70;;;;;;6147740;28;81050;-63
2022/04/21 14:09:18;;;;;;;16.20;8.80;;;23.20;36.90;;;;;;6146765;28;80358;-61
2022/04/21 14:12:19;;;;;;;16.25;8.30;;;23.20;37.20;;;;;;6153152;28;80867;-68
2022/04/21 14:15:20;;;;;;;15.95;8.57;;;23.20;37.30;;;;;;6138667;28;83712;-66
2022/04/21 14:18:20;;;;;;;14.38;8.18;;;23.20;37.40;;;;;;6148019;28;80826;-63
2022/04/21 14:21:23;;;;;;;13.82;7.30;;;23.20;37.50;;;;;;6154953;28;81565;-66
2022/04/21 14:24:24;;;;;;;12.20;7.00;;;23.20;37.60;;;;;;6144199;28;80434;-63
2022/04/21 14:27:24;;;;;;;14.68;7.82;;;23.20;37.70;;;;;;6150992;28;80575;-64
2022/04/21 14:30:25;;;;;;;15.07;7.15;;;23.20;37.80;;;;;;6137665;28;80347;-65
2022/04/21 14:33:26;;;;;;;13.88;7.75;;;23.20;37.80;;;;;;6137399;28;80311;-66
2022/04/21 14:36:27;;;;;;;15.52;8.15;;;23.10;37.80;;;;;;6137355;28;80341;-64
2022/04/21 14:46:06;;;;;;;12.07;6.90;;;23.10;38.00;;;;;;6154181;28;80422;-62
2022/04/21 14:49:07;;;;;;;15.95;7.93;;;23.10;38.10;;;;;;6149358;28;80788;-64
2022/04/21 14:52:09;;;;;;;13.05;7.45;;;23.10;38.10;;;;;;6138861;28;81620;-64
2022/04/21 14:55:10;;;;;;;11.48;6.97;;;23.00;38.20;;;;;;6157795;28;80990;-63
2022/04/21 14:58:10;;;;;;;12.35;7.03;;;23.10;38.50;;;;;;6138222;28;81393;-64
2022/04/21 15:01:11;;;;;;;12.38;7.45;;;23.10;38.80;;;;;;6135762;28;81688;-66
2022/04/21 15:04:11;;;;;;;14.05;8.15;;;23.10;38.80;;;;;;6136081;28;80432;-67
2022/04/21 15:07:12;;;;;;;13.43;7.50;;;23.00;39.00;;;;;;6136510;28;80666;-68
2022/04/21 15:10:13;;;;;;;11.45;7.85;;;23.00;39.00;;;;;;6136805;28;80332;-64
2022/04/21 15:13:13;;;;;;;11.80;6.43;;;23.00;39.20;;;;;;6148446;28;80492;-66
2022/04/21 15:16:14;;;;;;;87.15;34.67;;;23.00;40.10;;;;;;6159598;28;80538;-65
2022/04/21 15:19:14;;;;;;;190.35;85.70;;;23.00;40.00;;;;;;6155962;28;83166;-68
2022/04/21 15:22:17;;;;;;;150.15;70.38;;;23.10;40.30;;;;;;6157460;28;83050;-66
2022/04/21 15:25:18;;;;;;;133.88;60.42;;;23.10;40.70;;;;;;6155817;28;84038;-68
2022/04/21 15:28:18;;;;;;;125.80;61.88;;;23.10;40.40;;;;;;6154080;28;83365;-67
2022/04/21 15:31:19;;;;;;;118.55;57.38;;;23.20;40.20;;;;;;6143238;28;83306;-68
2022/04/21 15:34:19;;;;;;;103.07;50.58;;;23.20;40.90;;;;;;6147917;28;83167;-68
2022/04/21 15:37:20;;;;;;;94.28;46.50;;;23.20;40.90;;;;;;6132857;28;83166;-65
2022/04/21 15:40:20;;;;;;;86.40;40.38;;;23.30;41.00;;;;;;6149267;28;83799;-67
2022/04/21 15:43:21;;;;;;;307.98;140.98;;;23.30;40.70;;;;;;6155374;28;84558;-66
2022/04/21 15:46:22;;;;;;;362.60;165.15;;;23.20;41.30;;;;;;6151178;28;85066;-65
2022/04/21 15:49:22;;;;;;;328.73;149.73;;;23.30;41.40;;;;;;6146211;28;90824;-66
2022/04/21 15:52:23;;;;;;;276.38;129.43;;;23.30;41.30;;;;;;6129649;28;85588;-66
2022/04/21 15:58:48;;;;;;;228.68;108.07;;;23.40;41.20;;;;;;6150386;28;86313;-67
2022/04/21 16:01:49;;;;;;;206.82;95.47;;;23.40;41.40;;;;;;6151387;28;85621;-69
2022/04/21 16:04:49;;;;;;;153.02;76.88;;;23.40;41.50;;;;;;6154313;28;85694;-71
2022/04/21 16:07:51;;;;;;;167.48;77.60;;;23.40;41.30;;;;;;6153009;28;83225;-65
2022/04/21 16:10:51;;;;;;;138.40;66.70;;;23.40;41.40;;;;;;6154625;28;84074;-69
2022/04/21 16:13:52;;;;;;;133.27;62.92;;;23.40;41.70;;;;;;6149082;28;84494;-65
2022/04/21 16:16:52;;;;;;;132.70;61.20;;;23.40;41.50;;;;;;6154270;28;83107;-65
2022/04/21 16:19:54;;;;;;;119.93;57.70;;;23.40;42.00;;;;;;6148912;28;83031;-68
2022/04/21 16:22:55;;;;;;;99.47;50.75;;;23.40;41.20;;;;;;6149068;28;83503;-65
2022/04/21 16:25:55;;;;;;;101.95;49.05;;;23.50;41.40;;;;;;6153348;28;83107;-66
2022/04/21 16:28:56;;;;;;;108.38;51.58;;;23.50;41.40;;;;;;6139884;28;82768;-69
2022/04/21 16:31:59;;;;;;;93.43;46.53;;;23.50;41.70;;;;;;6153757;28;83525;-70